Time;durP1;ratioP1;P1;durP2;ratioP2;P2;SDS_P1;SDS_P2;PMS_P1;PMS_P2;Temp;Humidity;BMP_temperature;BMP_pressure;BME280_temperature;BME280_humidity;BME280_pressure;Samples;Min_cycle;Max_cycle;Signal;HPM_P1;HPM_P2
2022/01/06 00:00:53;;;;;;;5.47;3.97;;;4.10;99.90;;;;;;5049155;28;20461;-67
2022/01/06 00:03:20;;;;;;;8.33;3.67;;;4.00;99.90;;;;;;5060996;28;20476;-68
2022/01/06 00:05:47;;;;;;;5.43;3.50;;;4.10;99.90;;;;;;5062111;28;20945;-67
2022/01/06 00:08:15;;;;;;;7.43;3.63;;;4.00;99.90;;;;;;5069028;28;21043;-68
2022/01/06 00:10:42;;;;;;;10.00;3.87;;;4.00;99.90;;;;;;5048807;28;20505;-67
2022/01/06 00:13:13;;;;;;;6.80;3.47;;;3.90;99.90;;;;;;5049165;28;20535;-68
2022/01/06 00:15:56;;;;;;;7.03;3.93;;;3.90;99.90;;;;;;5048841;28;20443;-68
2022/01/06 00:18:33;;;;;;;6.93;4.23;;;3.80;99.90;;;;;;5052549;28;20471;-67
2022/01/06 00:23:46;;;;;;;7.20;4.00;;;3.70;99.90;;;;;;5048529;28;20485;-67
2022/01/06 00:26:12;;;;;;;8.50;4.17;;;3.70;99.90;;;;;;5048324;28;20578;-66
2022/01/06 00:28:40;;;;;;;8.40;4.27;;;3.80;99.90;;;;;;5066885;28;20481;-68
2022/01/06 00:31:06;;;;;;;6.50;3.20;;;3.80;99.90;;;;;;5068022;28;20450;-68
2022/01/06 00:33:34;;;;;;;13.30;4.97;;;3.80;99.90;;;;;;5057526;28;20443;-68
2022/01/06 00:36:01;;;;;;;6.57;3.37;;;3.80;99.90;;;;;;5051829;28;20448;-66
2022/01/06 00:38:28;;;;;;;8.43;3.90;;;3.80;99.90;;;;;;5048339;28;20549;-67
2022/01/06 00:40:58;;;;;;;9.00;4.03;;;3.90;99.90;;;;;;5048065;28;20457;-66
2022/01/06 00:43:25;;;;;;;5.20;3.30;;;3.90;99.90;;;;;;5048476;28;20452;-67
2022/01/06 00:45:52;;;;;;;10.57;4.20;;;3.90;99.90;;;;;;5047611;28;20490;-67
2022/01/06 00:48:19;;;;;;;7.70;4.10;;;4.00;99.90;;;;;;5048505;28;20475;-67
2022/01/06 00:50:46;;;;;;;9.67;3.90;;;4.00;99.90;;;;;;5047695;28;20462;-68
2022/01/06 00:53:13;;;;;;;7.00;3.60;;;4.00;99.90;;;;;;5060036;28;20483;-67
2022/01/06 00:55:41;;;;;;;8.27;4.07;;;4.00;99.90;;;;;;5067446;28;20451;-67
2022/01/06 00:58:10;;;;;;;5.47;3.43;;;4.10;99.90;;;;;;5063059;28;20919;-67
2022/01/06 01:00:40;;;;;;;10.93;4.17;;;4.10;99.90;;;;;;5046646;28;20448;-67
2022/01/06 01:03:09;;;;;;;6.33;3.73;;;4.10;99.90;;;;;;5055768;28;20593;-68
2022/01/06 01:05:36;;;;;;;7.90;4.47;;;4.20;99.90;;;;;;5055042;28;20486;-68
2022/01/06 01:08:03;;;;;;;8.93;3.90;;;4.20;99.90;;;;;;5056288;28;20495;-66
2022/01/06 01:10:30;;;;;;;8.13;3.57;;;4.20;99.90;;;;;;5070428;28;20993;-67
2022/01/06 01:12:57;;;;;;;5.73;3.70;;;4.20;99.90;;;;;;5070861;28;20565;-67
2022/01/06 01:15:27;;;;;;;18.60;3.87;;;4.10;99.90;;;;;;5070645;28;20461;-67
2022/01/06 01:18:04;;;;;;;5.87;3.87;;;4.20;99.90;;;;;;5070107;28;20508;-67
2022/01/06 01:20:31;;;;;;;6.87;3.73;;;4.20;99.90;;;;;;5070274;28;20477;-68
2022/01/06 01:22:58;;;;;;;7.70;4.17;;;4.20;99.90;;;;;;5070182;28;20447;-67
2022/01/06 01:25:24;;;;;;;8.30;3.13;;;4.10;99.90;;;;;;5069986;28;20579;-68
2022/01/06 01:27:55;;;;;;;8.57;4.13;;;4.10;99.90;;;;;;5069745;28;20846;-67
2022/01/06 01:30:29;;;;;;;6.40;3.50;;;4.10;99.90;;;;;;5069895;28;20452;-68
2022/01/06 01:32:59;;;;;;;5.33;3.40;;;4.10;99.90;;;;;;5069900;28;20440;-66
2022/01/06 01:35:31;;;;;;;11.20;4.00;;;4.10;99.90;;;;;;5069889;28;20444;-67
2022/01/06 01:37:57;;;;;;;9.40;4.00;;;4.10;99.90;;;;;;5069519;28;20499;-66
2022/01/06 01:40:24;;;;;;;5.63;4.17;;;4.10;99.90;;;;;;5069852;28;20451;-67
2022/01/06 01:42:52;;;;;;;8.57;4.30;;;4.10;99.90;;;;;;5069904;28;20473;-67
2022/01/06 01:45:18;;;;;;;7.57;4.10;;;4.10;99.90;;;;;;5069151;28;20579;-67
2022/01/06 01:47:45;;;;;;;8.03;4.60;;;4.10;99.90;;;;;;5069454;28;20983;-67
2022/01/06 01:50:16;;;;;;;8.30;3.67;;;4.10;99.90;;;;;;5069478;28;20977;-67
2022/01/06 01:52:46;;;;;;;5.87;3.20;;;4.00;99.90;;;;;;5069928;28;20447;-67
2022/01/06 01:55:15;;;;;;;4.67;3.93;;;4.00;99.90;;;;;;5069471;28;20866;-66
2022/01/06 01:57:42;;;;;;;6.27;3.10;;;4.00;99.90;;;;;;5069408;28;20499;-68
2022/01/06 02:00:12;;;;;;;9.50;4.00;;;4.00;99.90;;;;;;5069050;28;20949;-67
2022/01/06 02:02:40;;;;;;;8.90;3.77;;;4.00;99.90;;;;;;5069515;28;20463;-67
2022/01/06 02:05:07;;;;;;;6.80;3.53;;;4.00;99.90;;;;;;5069431;28;20527;-67
2022/01/06 02:07:38;;;;;;;6.93;4.00;;;4.10;99.90;;;;;;5070795;28;20458;-68
2022/01/06 02:10:06;;;;;;;17.23;4.33;;;4.10;99.90;;;;;;5075327;28;20432;-67
2022/01/06 02:12:37;;;;;;;7.40;4.57;;;4.10;99.90;;;;;;5075218;28;20451;-67
2022/01/06 02:15:04;;;;;;;7.10;3.70;;;4.10;99.90;;;;;;5075092;28;20440;-67
2022/01/06 02:17:31;;;;;;;8.33;4.03;;;4.10;99.90;;;;;;5075859;28;20447;-67
2022/01/06 02:20:06;;;;;;;8.53;5.43;;;4.10;99.90;;;;;;5074258;28;20447;-67
2022/01/06 02:22:33;;;;;;;10.30;4.00;;;4.10;99.90;;;;;;5069559;28;20431;-67
2022/01/06 02:25:10;;;;;;;8.80;3.63;;;4.10;99.90;;;;;;5068081;28;20483;-66
2022/01/06 02:27:36;;;;;;;6.90;4.20;;;4.10;99.90;;;;;;5068640;28;20447;-67
2022/01/06 02:30:05;;;;;;;7.90;4.50;;;4.10;99.90;;;;;;5068652;28;20462;-67
2022/01/06 02:32:32;;;;;;;11.30;4.57;;;4.10;99.90;;;;;;5068434;28;20454;-66
2022/01/06 02:35:03;;;;;;;4.90;3.20;;;4.10;99.90;;;;;;5068092;28;20542;-66
2022/01/06 02:37:31;;;;;;;5.67;3.57;;;4.10;99.90;;;;;;5068210;28;20960;-68
2022/01/06 02:39:58;;;;;;;8.37;4.43;;;4.10;99.90;;;;;;5068751;28;20921;-67
2022/01/06 02:42:25;;;;;;;6.40;3.93;;;4.00;99.90;;;;;;5068378;28;20435;-68
2022/01/06 02:44:52;;;;;;;11.80;4.03;;;4.00;99.90;;;;;;5067992;28;20991;-67
2022/01/06 02:47:19;;;;;;;7.47;3.60;;;4.00;99.90;;;;;;5068413;28;20458;-67
2022/01/06 02:49:46;;;;;;;6.30;4.33;;;4.00;99.90;;;;;;5067994;28;20475;-67
2022/01/06 02:52:13;;;;;;;8.47;4.70;;;3.90;99.90;;;;;;5068086;28;20891;-67
2022/01/06 02:54:41;;;;;;;10.43;3.90;;;3.90;99.90;;;;;;5067943;28;20526;-67
2022/01/06 02:57:09;;;;;;;6.83;3.77;;;3.90;99.90;;;;;;5068250;28;20439;-66
2022/01/06 02:59:36;;;;;;;7.20;3.80;;;3.90;99.90;;;;;;5067796;28;20467;-66
2022/01/06 03:02:03;;;;;;;6.80;5.10;;;4.00;99.90;;;;;;5068324;28;20466;-66
2022/01/06 03:04:30;;;;;;;6.87;3.63;;;4.00;99.90;;;;;;5067779;28;20447;-66
2022/01/06 03:06:57;;;;;;;7.00;4.57;;;4.00;99.90;;;;;;5067933;28;20518;-67
2022/01/06 03:09:36;;;;;;;14.43;5.10;;;4.00;99.90;;;;;;5068144;28;20471;-66
2022/01/06 03:12:05;;;;;;;7.30;3.90;;;4.00;99.90;;;;;;5068172;28;20457;-66
2022/01/06 03:14:33;;;;;;;9.30;3.93;;;4.00;99.90;;;;;;5067867;28;20447;-67
2022/01/06 03:17:00;;;;;;;6.13;3.90;;;3.90;99.90;;;;;;5067881;28;20447;-66
2022/01/06 03:19:26;;;;;;;12.43;3.93;;;4.00;99.90;;;;;;5067833;28;20574;-67
2022/01/06 03:21:53;;;;;;;4.90;3.20;;;4.10;99.90;;;;;;5067993;28;20447;-67
2022/01/06 03:24:20;;;;;;;16.27;4.00;;;4.10;99.90;;;;;;5067377;28;20454;-66
2022/01/06 03:26:47;;;;;;;7.13;3.93;;;4.20;99.90;;;;;;5067351;28;20852;-66
2022/01/06 03:29:15;;;;;;;7.03;4.40;;;4.10;99.90;;;;;;5067831;28;20463;-67
2022/01/06 03:31:42;;;;;;;10.77;3.60;;;4.10;99.90;;;;;;5067618;28;20448;-66
2022/01/06 03:34:09;;;;;;;13.60;4.80;;;4.10;99.90;;;;;;5067873;28;21028;-67
2022/01/06 03:36:36;;;;;;;7.60;4.27;;;4.00;99.90;;;;;;5067169;28;20454;-67
2022/01/06 03:39:03;;;;;;;9.20;4.67;;;4.00;99.90;;;;;;5067877;28;20464;-67
2022/01/06 03:41:30;;;;;;;13.13;4.37;;;4.00;99.90;;;;;;5067509;28;20454;-66
2022/01/06 03:43:57;;;;;;;4.70;3.70;;;3.90;99.90;;;;;;5067764;28;20452;-66
2022/01/06 03:46:25;;;;;;;8.30;3.77;;;4.00;99.90;;;;;;5067314;28;20479;-67
2022/01/06 03:48:52;;;;;;;5.90;4.23;;;3.90;99.90;;;;;;5067811;28;20477;-67
2022/01/06 03:51:23;;;;;;;5.97;4.27;;;3.90;99.90;;;;;;5067484;28;20451;-67
2022/01/06 03:53:50;;;;;;;7.37;4.00;;;3.90;99.90;;;;;;5068028;28;21022;-67
2022/01/06 03:56:17;;;;;;;10.00;4.60;;;3.80;99.90;;;;;;5067358;28;20448;-67
2022/01/06 03:58:44;;;;;;;7.77;4.37;;;3.90;99.90;;;;;;5067444;28;20482;-67
2022/01/06 04:01:11;;;;;;;7.70;5.33;;;3.80;99.90;;;;;;5067376;28;20468;-68
2022/01/06 04:03:40;;;;;;;9.23;4.00;;;3.80;99.90;;;;;;5067833;28;20582;-66
2022/01/06 04:06:07;;;;;;;4.57;3.87;;;3.80;99.90;;;;;;5067134;28;20479;-67
2022/01/06 04:08:34;;;;;;;7.00;4.40;;;3.80;99.90;;;;;;5067164;28;20994;-66
2022/01/06 04:11:01;;;;;;;6.63;4.03;;;3.80;99.90;;;;;;5067538;28;20456;-67
2022/01/06 04:13:28;;;;;;;6.40;3.50;;;3.90;99.90;;;;;;5067197;28;20451;-67
2022/01/06 04:15:54;;;;;;;10.70;3.90;;;3.80;99.90;;;;;;5067104;28;20980;-68
2022/01/06 04:18:21;;;;;;;8.33;4.13;;;3.80;99.90;;;;;;5067247;28;20467;-66
2022/01/06 04:20:50;;;;;;;10.00;4.03;;;3.90;99.90;;;;;;5067325;28;20889;-67
2022/01/06 04:23:16;;;;;;;9.17;4.10;;;3.90;99.90;;;;;;5067309;28;20448;-67
2022/01/06 04:25:43;;;;;;;6.37;3.87;;;4.00;99.90;;;;;;5066797;28;20475;-67
2022/01/06 04:28:10;;;;;;;9.73;4.20;;;4.00;99.90;;;;;;5067213;28;21153;-67
2022/01/06 04:30:37;;;;;;;5.80;3.80;;;4.00;99.90;;;;;;5066949;28;21143;-66
2022/01/06 04:33:04;;;;;;;7.40;4.40;;;4.00;99.90;;;;;;5067120;28;20451;-67
2022/01/06 04:35:31;;;;;;;7.00;4.53;;;4.00;99.90;;;;;;5069757;28;20469;-67
2022/01/06 04:37:59;;;;;;;8.57;3.97;;;4.00;99.90;;;;;;5070641;28;20489;-68
2022/01/06 04:40:26;;;;;;;6.30;3.70;;;4.00;99.90;;;;;;5070787;28;20822;-67
2022/01/06 04:42:53;;;;;;;8.43;4.77;;;4.00;99.90;;;;;;5070748;28;20458;-67
2022/01/06 04:45:20;;;;;;;7.40;4.80;;;4.00;99.90;;;;;;5069987;28;20439;-67
2022/01/06 04:47:47;;;;;;;6.33;4.30;;;4.00;99.90;;;;;;5070355;28;21024;-67
2022/01/06 04:50:14;;;;;;;9.23;4.80;;;4.00;99.90;;;;;;5070445;28;20451;-67
2022/01/06 04:52:40;;;;;;;9.73;4.53;;;4.00;99.90;;;;;;5070574;28;20455;-66
2022/01/06 04:55:10;;;;;;;6.33;3.70;;;3.90;99.90;;;;;;5069826;28;20461;-66
2022/01/06 04:57:37;;;;;;;9.23;4.10;;;3.90;99.90;;;;;;5070379;28;21024;-66
2022/01/06 05:00:05;;;;;;;6.73;3.83;;;4.00;99.90;;;;;;5070858;28;20452;-66
2022/01/06 05:02:32;;;;;;;6.73;3.90;;;4.00;99.90;;;;;;5070259;28;20473;-67
2022/01/06 05:04:59;;;;;;;11.13;4.50;;;4.00;99.90;;;;;;5070080;28;21027;-67
2022/01/06 05:07:26;;;;;;;13.37;3.80;;;4.00;99.90;;;;;;5069915;28;20471;-67
2022/01/06 05:09:53;;;;;;;7.13;3.83;;;4.00;99.90;;;;;;5070144;28;20450;-67
2022/01/06 05:12:22;;;;;;;6.40;4.80;;;3.90;99.90;;;;;;5069752;28;20462;-67
2022/01/06 05:14:48;;;;;;;11.30;4.50;;;3.90;99.90;;;;;;5069547;28;20455;-66
2022/01/06 05:17:15;;;;;;;10.00;4.47;;;3.90;99.90;;;;;;5069844;28;20443;-67
2022/01/06 05:19:42;;;;;;;6.53;3.40;;;3.80;99.90;;;;;;5070213;28;20490;-66
2022/01/06 05:22:09;;;;;;;6.40;3.93;;;3.80;99.90;;;;;;5070109;28;20535;-67
2022/01/06 05:24:38;;;;;;;9.57;4.50;;;3.70;99.90;;;;;;5070199;28;20443;-67
2022/01/06 05:27:09;;;;;;;7.10;4.00;;;3.70;99.90;;;;;;5070097;28;20872;-66
2022/01/06 05:29:37;;;;;;;9.33;4.87;;;3.60;99.90;;;;;;5070026;28;20475;-66
2022/01/06 05:32:05;;;;;;;5.83;3.60;;;3.60;99.90;;;;;;5069900;28;20435;-67
2022/01/06 05:34:31;;;;;;;6.07;4.17;;;3.60;99.90;;;;;;5069777;28;20439;-67
2022/01/06 05:36:58;;;;;;;12.37;4.43;;;3.60;99.90;;;;;;5069483;28;20442;-67
2022/01/06 05:39:25;;;;;;;9.90;4.00;;;3.60;99.90;;;;;;5069745;28;21089;-68
2022/01/06 05:41:52;;;;;;;12.13;4.70;;;3.70;99.90;;;;;;5069982;28;21028;-69
2022/01/06 05:44:19;;;;;;;9.13;4.23;;;3.80;99.90;;;;;;5069946;28;20479;-67
2022/01/06 05:46:48;;;;;;;5.17;4.00;;;3.80;99.90;;;;;;5069148;28;20570;-67
2022/01/06 05:49:15;;;;;;;6.20;3.97;;;3.90;99.90;;;;;;5069558;28;20460;-65
2022/01/06 05:51:42;;;;;;;10.83;4.13;;;3.90;99.90;;;;;;5069242;28;20446;-67
2022/01/06 05:54:09;;;;;;;8.47;4.20;;;3.90;99.90;;;;;;5069284;28;20447;-67
2022/01/06 05:56:36;;;;;;;12.47;4.63;;;3.90;99.90;;;;;;5069050;28;20455;-67
2022/01/06 05:59:03;;;;;;;10.73;4.47;;;3.90;99.90;;;;;;5069249;28;20467;-67
2022/01/06 06:01:30;;;;;;;8.60;4.07;;;4.00;99.90;;;;;;5069087;28;20945;-66
2022/01/06 06:03:58;;;;;;;5.90;3.80;;;4.00;99.90;;;;;;5069163;28;20526;-66
2022/01/06 06:06:25;;;;;;;12.87;4.20;;;4.00;99.90;;;;;;5068854;28;20505;-66
2022/01/06 06:08:51;;;;;;;8.93;4.20;;;4.00;99.90;;;;;;5069313;28;20550;-66
2022/01/06 06:11:18;;;;;;;11.27;4.70;;;3.90;99.90;;;;;;5069051;28;20451;-66
2022/01/06 06:13:45;;;;;;;7.60;3.80;;;3.90;99.90;;;;;;5069361;28;20531;-66
2022/01/06 06:16:12;;;;;;;11.03;4.10;;;3.90;99.90;;;;;;5068429;28;20535;-66
2022/01/06 06:18:39;;;;;;;6.70;4.37;;;3.80;99.90;;;;;;5068817;28;20471;-66
2022/01/06 06:21:08;;;;;;;6.30;4.07;;;3.90;99.90;;;;;;5068518;28;20491;-66
2022/01/06 06:23:35;;;;;;;9.80;4.50;;;3.90;99.90;;;;;;5068540;28;20543;-67
2022/01/06 06:26:02;;;;;;;6.23;3.93;;;3.90;99.90;;;;;;5068146;28;20448;-66
2022/01/06 06:28:29;;;;;;;10.63;4.00;;;3.90;99.90;;;;;;5068786;28;20464;-66
2022/01/06 06:30:58;;;;;;;8.30;3.80;;;3.90;99.90;;;;;;5068522;28;20454;-66
2022/01/06 06:33:24;;;;;;;13.03;4.60;;;3.90;99.90;;;;;;5068743;28;20462;-67
2022/01/06 06:35:51;;;;;;;10.63;4.10;;;4.00;99.90;;;;;;5068260;28;20802;-66
2022/01/06 06:38:20;;;;;;;6.90;4.20;;;4.00;99.90;;;;;;5068409;28;20547;-66
2022/01/06 06:40:46;;;;;;;7.13;4.77;;;3.90;99.90;;;;;;5068519;28;20446;-66
2022/01/06 06:43:13;;;;;;;8.30;4.10;;;3.90;99.90;;;;;;5068046;28;20448;-66
2022/01/06 06:45:40;;;;;;;9.63;4.80;;;3.80;99.90;;;;;;5067686;28;20494;-66
2022/01/06 06:48:07;;;;;;;6.90;4.30;;;3.80;99.90;;;;;;5067812;28;21016;-66
2022/01/06 06:50:35;;;;;;;8.50;3.93;;;3.80;99.90;;;;;;5067970;28;20451;-66
2022/01/06 06:53:03;;;;;;;7.03;4.37;;;3.80;99.90;;;;;;5067768;28;20444;-67
2022/01/06 06:55:32;;;;;;;13.10;6.20;;;3.80;99.90;;;;;;5067439;28;20455;-66
2022/01/06 06:57:58;;;;;;;10.73;4.57;;;3.80;99.90;;;;;;5066905;28;20529;-66
2022/01/06 07:00:25;;;;;;;8.07;4.57;;;3.80;99.90;;;;;;5069636;28;20451;-66
2022/01/06 07:02:52;;;;;;;9.97;4.43;;;3.80;99.90;;;;;;5067575;28;20460;-66
2022/01/06 07:05:19;;;;;;;6.10;3.87;;;3.70;99.90;;;;;;5067421;28;20538;-67
2022/01/06 07:07:46;;;;;;;5.70;4.23;;;3.60;99.90;;;;;;5067847;28;20577;-67
2022/01/06 07:10:14;;;;;;;7.33;4.43;;;3.60;99.90;;;;;;5067526;28;20542;-66
2022/01/06 07:12:43;;;;;;;13.87;4.47;;;3.60;99.90;;;;;;5067886;28;20952;-66
2022/01/06 07:15:12;;;;;;;10.03;5.67;;;3.50;99.90;;;;;;5067874;28;20449;-67
2022/01/06 07:17:39;;;;;;;8.67;4.13;;;3.50;99.90;;;;;;5067586;28;20443;-66
2022/01/06 07:20:08;;;;;;;11.23;4.60;;;3.50;99.90;;;;;;5067463;28;20447;-66
2022/01/06 07:22:35;;;;;;;9.03;4.20;;;3.40;99.90;;;;;;5067558;28;20974;-66
2022/01/06 07:25:02;;;;;;;10.63;4.73;;;3.40;99.90;;;;;;5067145;28;20815;-66
2022/01/06 07:27:30;;;;;;;8.27;4.70;;;3.40;99.90;;;;;;5067394;28;20498;-66
2022/01/06 07:29:58;;;;;;;11.63;4.90;;;3.40;99.90;;;;;;5067540;28;20538;-66
2022/01/06 07:32:25;;;;;;;10.43;4.33;;;3.40;99.90;;;;;;5068105;28;20526;-65
2022/01/06 07:34:53;;;;;;;7.87;4.47;;;3.40;99.90;;;;;;5067106;28;20455;-66
2022/01/06 07:37:20;;;;;;;9.10;4.67;;;3.40;99.90;;;;;;5067387;28;20934;-66
2022/01/06 07:39:47;;;;;;;6.93;5.10;;;3.30;99.90;;;;;;5067141;28;20570;-66
2022/01/06 07:42:13;;;;;;;11.50;4.70;;;3.30;99.90;;;;;;5067657;28;20447;-66
2022/01/06 07:44:42;;;;;;;9.47;4.70;;;3.30;99.90;;;;;;5067217;28;20484;-66
2022/01/06 07:47:12;;;;;;;11.50;5.30;;;3.20;99.90;;;;;;5067123;28;20486;-65
2022/01/06 07:49:39;;;;;;;6.37;4.50;;;3.30;99.90;;;;;;5067156;28;20876;-66
2022/01/06 07:52:06;;;;;;;7.13;4.20;;;3.30;99.90;;;;;;5066894;28;20459;-66
2022/01/06 07:54:33;;;;;;;6.30;4.00;;;3.30;99.90;;;;;;5066748;28;20451;-66
2022/01/06 07:57:00;;;;;;;9.17;5.37;;;3.20;99.90;;;;;;5066968;28;20445;-66
2022/01/06 07:59:27;;;;;;;10.17;6.73;;;3.30;99.90;;;;;;5067272;28;20463;-66
2022/01/06 08:01:53;;;;;;;11.50;4.90;;;3.30;99.90;;;;;;5066888;28;20487;-65
2022/01/06 08:04:22;;;;;;;7.30;5.27;;;3.40;99.90;;;;;;5066926;28;20453;-65
2022/01/06 08:06:48;;;;;;;8.00;4.90;;;3.50;99.90;;;;;;5066546;28;20480;-66
2022/01/06 08:09:15;;;;;;;9.70;5.30;;;3.50;99.90;;;;;;5068005;28;20495;-65
2022/01/06 08:11:42;;;;;;;9.50;5.57;;;3.50;99.90;;;;;;5070999;28;20446;-65
2022/01/06 08:14:12;;;;;;;9.80;5.03;;;3.60;99.90;;;;;;5071122;28;20456;-65
2022/01/06 08:16:39;;;;;;;8.40;5.00;;;3.60;99.90;;;;;;5070724;28;20453;-65
2022/01/06 08:19:06;;;;;;;13.87;6.10;;;3.60;99.90;;;;;;5070717;28;20474;-65
2022/01/06 08:21:34;;;;;;;9.03;5.10;;;3.70;99.90;;;;;;5071018;28;20456;-65
2022/01/06 08:24:01;;;;;;;11.23;5.77;;;3.80;99.90;;;;;;5070737;28;20451;-66
2022/01/06 08:26:28;;;;;;;11.60;5.33;;;3.90;99.90;;;;;;5070404;28;20490;-65
2022/01/06 08:28:55;;;;;;;10.60;4.87;;;3.90;99.90;;;;;;5070211;28;20489;-65
2022/01/06 08:31:21;;;;;;;8.03;5.20;;;4.00;99.90;;;;;;5070450;28;20450;-66
2022/01/06 08:33:48;;;;;;;10.13;4.70;;;4.00;99.90;;;;;;5070009;28;20453;-66
2022/01/06 08:36:16;;;;;;;11.43;5.13;;;4.10;99.90;;;;;;5070099;28;20444;-65
2022/01/06 08:38:44;;;;;;;8.90;5.20;;;4.10;99.90;;;;;;5069937;28;20470;-65
2022/01/06 08:41:11;;;;;;;10.10;5.20;;;4.20;99.90;;;;;;5070225;28;20447;-65
2022/01/06 08:43:38;;;;;;;11.90;4.97;;;4.20;99.90;;;;;;5070071;28;20460;-66
2022/01/06 08:46:05;;;;;;;11.30;5.10;;;4.10;99.90;;;;;;5069835;28;20556;-66
2022/01/06 08:48:32;;;;;;;9.70;4.90;;;4.10;99.90;;;;;;5069866;28;20483;-66
2022/01/06 08:50:59;;;;;;;8.70;4.93;;;4.00;99.90;;;;;;5070165;28;20534;-66
2022/01/06 08:53:26;;;;;;;10.00;5.30;;;4.00;99.90;;;;;;5070306;28;20473;-66
2022/01/06 08:55:54;;;;;;;11.43;5.13;;;4.00;99.90;;;;;;5068329;28;20532;-66
2022/01/06 08:58:21;;;;;;;9.20;5.90;;;4.10;99.90;;;;;;5058587;28;20471;-65
2022/01/06 09:00:48;;;;;;;10.33;5.40;;;4.20;99.90;;;;;;5065294;28;20463;-66
2022/01/06 09:03:15;;;;;;;8.20;6.47;;;4.40;99.90;;;;;;5067531;28;21024;-66
2022/01/06 09:05:42;;;;;;;10.33;6.07;;;4.40;99.90;;;;;;5063525;28;20444;-66
2022/01/06 09:08:09;;;;;;;11.37;6.23;;;4.50;99.90;;;;;;5061564;28;20525;-65
2022/01/06 09:10:36;;;;;;;9.13;5.67;;;4.60;99.90;;;;;;5061611;28;20469;-66
2022/01/06 09:13:05;;;;;;;14.57;5.70;;;4.60;99.90;;;;;;5069190;28;20531;-66
2022/01/06 09:15:32;;;;;;;11.73;5.40;;;4.60;99.90;;;;;;5068148;28;20431;-65
2022/01/06 09:17:59;;;;;;;8.47;6.07;;;4.50;99.90;;;;;;5065855;28;21027;-67
2022/01/06 09:20:26;;;;;;;8.80;5.83;;;4.50;99.90;;;;;;5067656;28;20432;-66
2022/01/06 09:22:53;;;;;;;9.33;5.37;;;4.50;99.90;;;;;;5069259;28;20439;-67
2022/01/06 09:25:19;;;;;;;9.33;5.90;;;4.40;99.90;;;;;;5069502;28;20462;-67
2022/01/06 09:27:46;;;;;;;7.50;5.67;;;4.40;99.90;;;;;;5069281;28;20482;-67
2022/01/06 09:30:14;;;;;;;7.33;4.73;;;4.30;99.90;;;;;;5069771;28;20444;-67
2022/01/06 09:32:42;;;;;;;6.10;4.50;;;4.30;99.90;;;;;;5069819;28;20466;-67
2022/01/06 09:35:09;;;;;;;7.50;4.63;;;4.40;99.90;;;;;;5069767;28;20446;-66
2022/01/06 09:37:36;;;;;;;7.80;4.73;;;4.50;99.90;;;;;;5069675;28;20440;-67
2022/01/06 09:40:06;;;;;;;8.23;5.53;;;4.50;99.90;;;;;;5069455;28;20440;-67
2022/01/06 09:42:33;;;;;;;6.07;5.23;;;4.50;99.90;;;;;;5069455;28;20550;-66
2022/01/06 09:45:00;;;;;;;13.17;5.23;;;4.50;99.90;;;;;;5067194;28;20535;-65
2022/01/06 09:47:30;;;;;;;8.60;5.43;;;4.60;99.90;;;;;;5062965;28;20499;-65
2022/01/06 09:49:57;;;;;;;10.23;4.90;;;4.80;99.90;;;;;;5059723;28;20443;-66
2022/01/06 09:52:24;;;;;;;6.27;4.27;;;4.90;99.90;;;;;;5065614;28;20531;-65
2022/01/06 09:54:51;;;;;;;9.57;4.57;;;5.10;99.90;;;;;;5064964;28;20455;-68
2022/01/06 09:57:19;;;;;;;9.73;4.67;;;5.20;99.90;;;;;;5066774;28;20908;-68
2022/01/06 09:59:46;;;;;;;10.80;5.27;;;5.20;99.90;;;;;;5064449;28;20481;-67
2022/01/06 10:02:16;;;;;;;5.83;3.83;;;5.20;99.90;;;;;;5064106;28;20463;-67
2022/01/06 10:04:45;;;;;;;7.93;4.57;;;5.20;99.90;;;;;;5060676;28;20833;-67
2022/01/06 10:07:16;;;;;;;12.07;4.87;;;5.00;99.90;;;;;;5063591;28;20448;-67
2022/01/06 10:09:43;;;;;;;8.20;4.43;;;4.90;99.90;;;;;;5061697;28;20823;-67
2022/01/06 10:12:13;;;;;;;8.37;4.43;;;4.80;99.90;;;;;;5065929;28;21047;-66
2022/01/06 10:14:43;;;;;;;8.37;5.23;;;4.80;99.90;;;;;;5065228;28;20462;-65
2022/01/06 10:17:11;;;;;;;10.00;5.37;;;4.80;99.90;;;;;;5068810;28;20444;-65
2022/01/06 10:19:40;;;;;;;10.87;4.43;;;4.80;99.90;;;;;;5061024;28;20467;-65
2022/01/06 10:22:13;;;;;;;10.47;4.80;;;4.90;99.90;;;;;;5067486;28;20494;-65
2022/01/06 10:24:39;;;;;;;8.30;5.20;;;4.90;99.90;;;;;;5055014;28;20458;-66
2022/01/06 10:27:09;;;;;;;9.27;6.37;;;5.00;99.90;;;;;;5064051;28;20451;-65
2022/01/06 10:29:38;;;;;;;7.23;4.53;;;5.40;99.90;;;;;;5065778;28;21046;-65
2022/01/06 10:32:06;;;;;;;7.37;3.90;;;5.60;99.90;;;;;;5063293;28;20454;-66
2022/01/06 10:34:34;;;;;;;12.80;4.23;;;5.50;99.90;;;;;;5055363;28;20539;-66
2022/01/06 10:37:02;;;;;;;8.13;4.10;;;5.40;99.90;;;;;;5065004;28;20451;-66
2022/01/06 10:39:42;;;;;;;5.43;4.17;;;5.10;99.90;;;;;;5064884;28;20472;-66
2022/01/06 10:42:10;;;;;;;9.90;3.80;;;5.00;99.90;;;;;;5060374;28;20456;-66
2022/01/06 10:44:47;;;;;;;12.10;4.87;;;5.00;99.90;;;;;;5060945;28;20452;-66
2022/01/06 10:47:13;;;;;;;11.07;5.20;;;5.00;99.90;;;;;;5063415;28;21009;-66
2022/01/06 10:49:40;;;;;;;8.20;4.20;;;5.10;99.90;;;;;;5066338;28;20471;-66
2022/01/06 10:52:07;;;;;;;13.63;5.20;;;5.20;99.90;;;;;;5065754;28;20451;-66
2022/01/06 10:54:37;;;;;;;5.53;3.40;;;5.30;99.90;;;;;;5066178;28;20826;-66
2022/01/06 10:57:07;;;;;;;10.50;4.97;;;5.60;99.90;;;;;;5065379;28;20454;-66
2022/01/06 10:59:35;;;;;;;9.80;4.03;;;5.70;99.90;;;;;;5064076;28;20463;-66
2022/01/06 11:02:03;;;;;;;8.77;3.77;;;5.70;99.90;;;;;;5061447;28;20491;-66
2022/01/06 11:04:31;;;;;;;7.77;3.50;;;5.70;99.90;;;;;;5060571;28;20461;-69
2022/01/06 11:06:58;;;;;;;12.03;3.60;;;5.70;99.90;;;;;;5058171;28;20454;-66
2022/01/06 11:09:29;;;;;;;7.40;3.70;;;5.50;99.90;;;;;;5064915;28;20487;-66
2022/01/06 11:14:45;;;;;;;5.97;3.30;;;5.50;99.90;;;;;;5052751;28;21253;-67
2022/01/06 11:17:13;;;;;;;7.70;4.20;;;5.50;99.90;;;;;;5052723;28;21318;-67
2022/01/06 11:19:41;;;;;;;8.67;3.93;;;5.50;99.90;;;;;;5056024;28;20471;-66
2022/01/06 11:22:09;;;;;;;8.33;3.60;;;5.50;99.90;;;;;;5057647;28;20451;-67
2022/01/06 11:24:38;;;;;;;6.27;3.37;;;5.50;99.90;;;;;;5054966;28;20444;-67
2022/01/06 11:27:09;;;;;;;8.37;3.40;;;5.50;99.90;;;;;;5050500;28;20440;-67
2022/01/06 11:29:40;;;;;;;17.33;3.97;;;5.50;99.90;;;;;;5060929;28;20475;-66
2022/01/06 11:32:20;;;;;;;9.07;3.57;;;5.50;99.90;;;;;;5060590;28;20462;-67
2022/01/06 11:34:50;;;;;;;11.03;3.50;;;5.60;99.90;;;;;;5064492;28;20447;-67
2022/01/06 11:37:17;;;;;;;8.00;3.20;;;5.60;99.90;;;;;;5061879;28;20431;-66
2022/01/06 11:39:44;;;;;;;8.07;2.83;;;5.70;99.90;;;;;;5064853;28;21036;-67
2022/01/06 11:42:17;;;;;;;6.47;2.97;;;5.80;99.90;;;;;;5062579;28;20448;-66
2022/01/06 11:44:53;;;;;;;8.77;3.10;;;5.90;99.90;;;;;;5056828;28;20934;-67
2022/01/06 11:47:31;;;;;;;4.87;2.23;;;6.10;99.90;;;;;;5064215;28;20451;-68
2022/01/06 11:50:11;;;;;;;8.37;3.10;;;6.10;99.90;;;;;;5060801;28;20494;-68
2022/01/06 11:52:50;;;;;;;8.80;3.73;;;6.10;99.90;;;;;;5061234;28;20451;-66
2022/01/06 11:55:17;;;;;;;6.40;3.17;;;6.20;99.90;;;;;;5063697;28;20529;-67
2022/01/06 11:57:45;;;;;;;7.27;3.67;;;6.20;99.90;;;;;;5063764;28;20542;-71
2022/01/06 12:00:18;;;;;;;5.20;2.90;;;6.30;99.90;;;;;;5061543;28;20535;-72
2022/01/06 12:02:55;;;;;;;6.30;2.90;;;6.30;99.90;;;;;;5060114;28;20459;-67
2022/01/06 12:05:22;;;;;;;12.00;3.30;;;6.50;99.90;;;;;;5064297;28;20461;-66
2022/01/06 12:07:51;;;;;;;9.53;3.43;;;6.80;99.90;;;;;;5061036;28;20480;-66
2022/01/06 12:10:18;;;;;;;6.03;3.13;;;7.20;99.90;;;;;;5064562;28;20447;-65
2022/01/06 12:12:48;;;;;;;8.27;3.60;;;7.30;99.90;;;;;;5061048;28;20798;-68
2022/01/06 12:15:17;;;;;;;6.97;3.80;;;7.20;99.90;;;;;;5057302;28;21548;-67
2022/01/06 12:17:46;;;;;;;9.40;3.00;;;7.30;99.90;;;;;;5063770;28;21171;-65
2022/01/06 12:20:19;;;;;;;8.37;2.80;;;7.10;99.90;;;;;;5067250;28;20452;-66
2022/01/06 12:22:46;;;;;;;5.90;2.77;;;6.70;99.90;;;;;;5063328;28;20456;-65
2022/01/06 12:25:13;;;;;;;7.20;3.17;;;6.50;99.90;;;;;;5066265;28;20535;-65
2022/01/06 12:27:49;;;;;;;6.90;2.70;;;6.30;99.90;;;;;;5064525;28;20443;-66
2022/01/06 12:30:18;;;;;;;9.10;2.80;;;6.20;99.90;;;;;;5067569;28;20960;-64
2022/01/06 12:32:56;;;;;;;8.83;3.23;;;6.10;99.90;;;;;;5067698;28;20447;-65
2022/01/06 12:35:39;;;;;;;9.10;3.27;;;6.30;99.90;;;;;;5061828;28;21132;-65
2022/01/06 12:38:07;;;;;;;13.27;3.27;;;6.30;99.90;;;;;;5061280;28;20468;-66
2022/01/06 12:40:35;;;;;;;8.87;3.07;;;6.30;99.90;;;;;;5056900;28;21133;-66
2022/01/06 12:43:18;;;;;;;11.37;3.33;;;6.40;99.90;;;;;;5062401;28;20451;-65
2022/01/06 12:45:46;;;;;;;7.27;2.40;;;6.60;99.90;;;;;;5059542;28;20451;-66
2022/01/06 12:48:14;;;;;;;12.00;3.43;;;6.60;99.90;;;;;;5062086;28;20495;-65
2022/01/06 12:50:43;;;;;;;5.37;2.53;;;6.60;99.90;;;;;;5056001;28;20436;-65
2022/01/06 12:53:10;;;;;;;8.40;2.57;;;6.80;99.90;;;;;;5063029;28;20445;-65
2022/01/06 12:55:43;;;;;;;7.30;3.40;;;6.90;99.90;;;;;;5064794;28;20531;-66
2022/01/06 12:58:09;;;;;;;9.90;3.10;;;6.90;99.90;;;;;;5064876;28;20844;-66
2022/01/06 13:00:38;;;;;;;7.97;2.97;;;6.90;99.90;;;;;;5045928;28;20453;-64
2022/01/06 13:03:05;;;;;;;5.80;3.13;;;6.90;99.90;;;;;;5064198;28;20447;-65
2022/01/06 13:05:35;;;;;;;10.00;2.57;;;6.80;99.90;;;;;;5046956;28;21191;-64